createdAt,value
2023-03-08T00:01:16.038Z,1.60
2023-03-08T00:03:44.520Z,1.50
2023-03-08T00:06:13.792Z,1.50
2023-03-08T00:08:43.128Z,1.60
2023-03-08T00:11:13.630Z,1.60
2023-03-08T00:13:43.854Z,1.60
2023-03-08T00:16:13.657Z,1.60
2023-03-08T00:18:42.427Z,1.50
2023-03-08T00:21:12.193Z,1.50
2023-03-08T00:23:41.105Z,1.50
2023-03-08T00:26:09.890Z,1.50
2023-03-08T00:28:38.546Z,1.50
2023-03-08T00:31:10.134Z,1.50
2023-03-08T00:33:39.817Z,1.50
2023-03-08T00:36:09.746Z,1.40
2023-03-08T00:38:38.889Z,1.50
2023-03-08T00:41:08.355Z,1.50
2023-03-08T00:43:37.104Z,1.40
2023-03-08T00:46:05.829Z,1.50
2023-03-08T00:48:35.305Z,1.50
2023-03-08T00:51:03.739Z,1.60
2023-03-08T00:53:31.828Z,1.60
2023-03-08T00:56:00.749Z,1.40
2023-03-08T00:58:32.733Z,1.50
2023-03-08T01:01:01.293Z,1.60
2023-03-08T01:03:29.366Z,1.60
2023-03-08T01:05:59.984Z,1.70
2023-03-08T01:08:29.071Z,1.60
2023-03-08T01:10:58.860Z,1.60
2023-03-08T01:13:28.768Z,1.60
2023-03-08T01:15:58.232Z,1.70
2023-03-08T01:18:26.876Z,1.70
2023-03-08T01:21:01.572Z,1.50
2023-03-08T01:23:30.248Z,1.50
2023-03-08T01:26:02.539Z,1.50
2023-03-08T01:28:31.077Z,1.60
2023-03-08T01:31:02.892Z,1.50
2023-03-08T01:33:31.057Z,1.50
2023-03-08T01:36:00.516Z,1.50
2023-03-08T01:38:28.653Z,1.50
2023-03-08T01:40:58.214Z,1.80
2023-03-08T01:43:27.282Z,1.50
2023-03-08T01:46:06.904Z,1.50
2023-03-08T01:48:36.752Z,1.50
2023-03-08T01:51:07.871Z,1.60
2023-03-08T01:53:36.833Z,1.60
2023-03-08T01:56:06.249Z,1.50
2023-03-08T01:58:35.022Z,1.50
2023-03-08T02:01:03.281Z,1.60
2023-03-08T02:03:31.474Z,1.60
2023-03-08T02:05:59.789Z,1.70
2023-03-08T02:08:31.020Z,1.60
2023-03-08T02:10:59.372Z,1.60
2023-03-08T02:13:27.528Z,1.60
2023-03-08T02:15:59.584Z,1.60
2023-03-08T02:18:27.936Z,1.60
2023-03-08T02:20:56.029Z,1.60
2023-03-08T02:23:26.850Z,1.60
2023-03-08T02:25:55.964Z,1.60
2023-03-08T02:28:25.302Z,1.50
2023-03-08T02:30:53.494Z,1.60
2023-03-08T02:33:21.858Z,1.60
2023-03-08T02:35:52.818Z,1.70
2023-03-08T02:38:22.099Z,1.70
2023-03-08T02:40:53.149Z,1.80
2023-03-08T02:43:21.514Z,1.80
2023-03-08T02:45:49.627Z,1.80
2023-03-08T02:48:18.415Z,1.80
2023-03-08T02:50:48.803Z,1.80
2023-03-08T02:53:17.043Z,1.80
2023-03-08T02:55:45.393Z,1.70
2023-03-08T02:58:15.000Z,1.70
2023-03-08T03:00:43.047Z,1.90
2023-03-08T03:03:11.099Z,1.70
2023-03-08T03:05:43.499Z,1.70
2023-03-08T03:08:12.062Z,1.70
2023-03-08T03:10:41.902Z,1.70
2023-03-08T03:13:10.233Z,1.80
2023-03-08T03:15:41.176Z,1.70
2023-03-08T03:18:09.352Z,1.70
2023-03-08T03:20:37.508Z,1.70
2023-03-08T03:23:06.875Z,1.60
2023-03-08T03:25:38.116Z,1.70
2023-03-08T03:28:06.966Z,1.60
2023-03-08T03:30:35.005Z,1.70
2023-03-08T03:33:04.467Z,1.70
2023-03-08T03:35:32.931Z,1.70
2023-03-08T03:38:01.083Z,1.70
2023-03-08T03:40:29.270Z,1.80
2023-03-08T03:43:00.941Z,1.70
2023-03-08T03:45:29.281Z,1.70
2023-03-08T03:47:57.408Z,1.70
2023-03-08T03:50:27.397Z,1.70
2023-03-08T03:52:55.614Z,1.70
2023-03-08T03:55:23.833Z,1.80
2023-03-08T03:57:52.066Z,1.80
2023-03-08T04:00:20.366Z,1.80
2023-03-08T04:02:48.542Z,1.70
2023-03-08T04:05:16.776Z,1.70
2023-03-08T04:07:46.199Z,1.70
2023-03-08T04:10:14.534Z,1.70
2023-03-08T04:12:42.911Z,1.70
2023-03-08T04:15:11.298Z,1.70
2023-03-08T04:17:39.411Z,1.70
2023-03-08T04:20:08.378Z,1.70
2023-03-08T04:22:36.671Z,1.70
2023-03-08T04:25:06.525Z,1.70
2023-03-08T04:27:34.558Z,1.70
2023-03-08T04:30:02.706Z,1.70
2023-03-08T04:32:32.095Z,1.70
2023-03-08T04:35:00.888Z,1.70
2023-03-08T04:37:28.967Z,1.80
2023-03-08T04:39:57.282Z,1.70
2023-03-08T04:42:27.890Z,1.70
2023-03-08T04:44:59.200Z,1.70
2023-03-08T04:47:28.075Z,1.80
2023-03-08T04:49:56.134Z,1.70
2023-03-08T04:52:24.159Z,1.80
2023-03-08T04:54:52.326Z,1.80
2023-03-08T04:57:20.986Z,1.70
2023-03-08T04:59:50.638Z,1.70
2023-03-08T05:02:18.737Z,1.60
2023-03-08T05:04:46.998Z,1.60
2023-03-08T05:07:15.984Z,1.60
2023-03-08T05:09:44.648Z,1.60
2023-03-08T05:12:13.275Z,1.60
2023-03-08T05:14:41.920Z,1.60
2023-03-08T05:17:12.324Z,1.70
2023-03-08T05:19:40.936Z,1.60
2023-03-08T05:22:09.913Z,1.70
2023-03-08T05:24:41.590Z,1.60
2023-03-08T05:27:10.589Z,1.60
2023-03-08T05:29:39.506Z,1.50
2023-03-08T05:32:08.670Z,1.40
2023-03-08T05:34:38.712Z,1.40
2023-03-08T05:37:07.182Z,1.40
2023-03-08T05:39:35.665Z,1.50
2023-03-08T05:42:03.781Z,1.50
2023-03-08T05:44:31.919Z,1.50
2023-03-08T05:47:00.062Z,1.50
2023-03-08T05:49:28.031Z,1.80
2023-03-08T05:51:57.463Z,1.60
2023-03-08T05:54:25.889Z,1.50
2023-03-08T05:56:54.745Z,1.60
2023-03-08T05:59:23.076Z,1.60
2023-03-08T06:01:52.035Z,1.80
2023-03-08T06:04:20.854Z,1.70
2023-03-08T06:06:49.676Z,1.60
2023-03-08T06:09:19.726Z,1.60
2023-03-08T06:11:48.826Z,1.60
2023-03-08T06:14:17.629Z,1.70
2023-03-08T06:16:49.046Z,1.80
2023-03-08T06:19:17.937Z,1.90
2023-03-08T06:21:46.900Z,1.90
2023-03-08T06:24:15.701Z,1.90
2023-03-08T06:26:46.150Z,1.90
2023-03-08T06:29:15.231Z,1.80
2023-03-08T06:31:44.425Z,1.90
2023-03-08T06:34:13.621Z,1.90
2023-03-08T06:36:42.636Z,1.90
2023-03-08T06:39:12.343Z,1.90
2023-03-08T06:41:41.156Z,2.00
2023-03-08T06:44:11.553Z,1.90
2023-03-08T06:46:40.363Z,1.90
2023-03-08T06:49:09.709Z,2.00
2023-03-08T06:51:38.312Z,2.10
2023-03-08T06:54:07.235Z,2.10
2023-03-08T06:56:36.340Z,2.30
2023-03-08T06:59:04.987Z,2.30
2023-03-08T07:01:35.252Z,2.50
2023-03-08T07:04:04.071Z,2.40
2023-03-08T07:06:32.927Z,2.40
2023-03-08T07:09:01.799Z,2.30
2023-03-08T07:11:31.907Z,2.40
2023-03-08T07:14:02.118Z,2.40
2023-03-08T07:16:30.742Z,2.60
2023-03-08T07:19:02.590Z,2.50
2023-03-08T07:21:31.215Z,2.70
2023-03-08T07:23:59.869Z,2.70
2023-03-08T07:26:28.822Z,2.80
2023-03-08T07:28:58.260Z,2.80
2023-03-08T07:31:29.302Z,2.90
2023-03-08T07:34:00.664Z,2.90
2023-03-08T07:36:30.765Z,2.90
2023-03-08T07:38:59.559Z,3.00
2023-03-08T07:41:30.627Z,2.90
2023-03-08T07:43:58.626Z,2.80
2023-03-08T07:46:28.547Z,2.90
2023-03-08T07:48:59.666Z,2.90
2023-03-08T07:51:27.889Z,3.10
2023-03-08T07:53:58.163Z,3.10
2023-03-08T07:56:26.346Z,3.00
2023-03-08T07:58:54.463Z,3.00
2023-03-08T08:01:22.560Z,3.00
2023-03-08T08:03:51.436Z,3.00
2023-03-08T08:06:19.598Z,3.00
2023-03-08T08:08:48.191Z,2.90
2023-03-08T08:11:20.121Z,2.90
2023-03-08T08:13:48.326Z,3.00
2023-03-08T08:16:17.284Z,3.10
2023-03-08T08:18:45.687Z,3.10
2023-03-08T08:21:15.370Z,3.10
2023-03-08T08:23:44.248Z,3.00
2023-03-08T08:26:14.273Z,2.90
2023-03-08T08:28:46.553Z,2.90
2023-03-08T08:31:15.927Z,2.90
2023-03-08T08:33:44.101Z,2.90
2023-03-08T08:36:13.449Z,3.00
2023-03-08T08:38:43.369Z,3.10
2023-03-08T08:41:11.721Z,3.10
2023-03-08T08:43:39.772Z,3.00
2023-03-08T08:46:09.816Z,3.30
2023-03-08T08:48:38.857Z,3.30
2023-03-08T08:51:07.631Z,3.40
2023-03-08T08:53:37.223Z,3.50
2023-03-08T08:56:23.821Z,3.40
2023-03-08T08:58:54.027Z,3.40
2023-03-08T09:01:24.776Z,3.40
2023-03-08T09:03:53.485Z,3.50
2023-03-08T09:06:22.849Z,3.50
2023-03-08T09:08:51.389Z,3.30
2023-03-08T09:11:19.666Z,3.20
2023-03-08T09:13:47.967Z,3.30
2023-03-08T09:16:20.639Z,3.40
2023-03-08T09:18:50.258Z,3.50
2023-03-08T09:21:18.512Z,3.50
2023-03-08T09:23:46.911Z,3.30
2023-03-08T09:26:15.194Z,3.10
2023-03-08T09:28:43.551Z,3.00
2023-03-08T09:31:15.250Z,2.90
2023-03-08T09:33:44.366Z,2.80
2023-03-08T09:36:14.087Z,2.80
2023-03-08T09:38:42.925Z,2.90
2023-03-08T09:41:22.676Z,2.90
2023-03-08T09:43:58.240Z,2.80
2023-03-08T09:46:30.088Z,2.80
2023-03-08T09:49:01.173Z,2.90
2023-03-08T09:51:35.156Z,2.80
2023-03-08T09:54:06.219Z,2.80
2023-03-08T09:56:37.881Z,2.80
2023-03-08T09:59:07.282Z,2.80
2023-03-08T10:01:38.263Z,2.90
2023-03-08T10:04:16.793Z,2.80
2023-03-08T10:06:50.394Z,2.90
2023-03-08T10:09:26.339Z,3.00
2023-03-08T10:12:00.649Z,2.90
2023-03-08T10:14:31.453Z,2.70
2023-03-08T10:17:02.298Z,2.60
2023-03-08T10:19:32.554Z,2.60
2023-03-08T10:22:04.961Z,2.60
2023-03-08T10:24:38.634Z,2.50
2023-03-08T10:27:21.143Z,2.40
2023-03-08T10:29:50.257Z,2.40
2023-03-08T10:32:19.114Z,2.40
2023-03-08T10:34:47.414Z,2.50
2023-03-08T10:37:17.150Z,2.50
2023-03-08T10:39:53.582Z,2.40
2023-03-08T10:42:22.992Z,2.70
2023-03-08T10:44:58.896Z,2.60
2023-03-08T10:47:27.734Z,2.60
2023-03-08T10:50:07.170Z,2.60
2023-03-08T10:52:36.841Z,2.60
2023-03-08T10:55:07.451Z,2.60
2023-03-08T10:57:35.503Z,2.70
2023-03-08T11:00:13.754Z,2.80
2023-03-08T11:02:41.867Z,2.90
2023-03-08T11:05:19.568Z,2.80
2023-03-08T11:07:53.289Z,2.90
2023-03-08T11:10:24.411Z,2.80
2023-03-08T11:13:01.819Z,2.60
2023-03-08T11:15:31.094Z,2.60
2023-03-08T11:18:03.041Z,2.60
2023-03-08T11:20:33.759Z,2.50
2023-03-08T11:23:08.263Z,2.60
2023-03-08T11:25:39.677Z,2.60
2023-03-08T11:28:40.816Z,2.50
2023-03-08T11:31:15.341Z,2.60
2023-03-08T11:34:06.845Z,2.60
2023-03-08T11:36:39.659Z,2.60
2023-03-08T11:39:14.428Z,2.80
2023-03-08T11:41:45.845Z,2.70
2023-03-08T11:44:32.080Z,2.70
2023-03-08T11:47:12.106Z,2.60
2023-03-08T11:49:48.292Z,2.70
2023-03-08T11:52:23.633Z,2.70
2023-03-08T11:55:01.312Z,2.50
2023-03-08T11:57:34.502Z,2.50
2023-03-08T12:00:11.801Z,2.60
2023-03-08T12:02:41.582Z,2.70
2023-03-08T12:05:15.965Z,2.70
2023-03-08T12:07:46.348Z,2.70
2023-03-08T12:10:21.309Z,2.80
2023-03-08T12:12:52.467Z,2.90
2023-03-08T12:15:24.810Z,3.00
2023-03-08T12:17:54.724Z,2.90
2023-03-08T12:20:23.791Z,2.90
2023-03-08T12:22:55.956Z,2.70
2023-03-08T12:25:27.925Z,2.70
2023-03-08T12:27:59.727Z,2.70
2023-03-08T12:30:35.494Z,2.60
2023-03-08T12:33:04.573Z,2.60
2023-03-08T12:35:34.402Z,2.80
2023-03-08T12:38:03.831Z,2.70
2023-03-08T12:40:37.480Z,2.70
2023-03-08T12:43:06.944Z,2.70
2023-03-08T12:45:35.193Z,2.80
2023-03-08T12:48:10.647Z,2.70
2023-03-08T12:50:42.756Z,2.80
2023-03-08T12:53:28.326Z,2.70
2023-03-08T12:56:16.964Z,2.60
2023-03-08T12:58:52.077Z,2.70
2023-03-08T13:01:35.209Z,2.70
2023-03-08T13:04:04.339Z,2.60
2023-03-08T13:06:54.655Z,2.50
2023-03-08T13:09:26.451Z,2.50
2023-03-08T13:11:59.281Z,2.60
2023-03-08T13:14:29.621Z,2.60
2023-03-08T13:16:57.955Z,2.60
2023-03-08T13:19:28.208Z,2.60
2023-03-08T13:22:00.495Z,2.80
2023-03-08T13:24:33.895Z,2.80
2023-03-08T13:27:09.846Z,2.80
2023-03-08T13:29:39.420Z,2.90
2023-03-08T13:32:09.209Z,2.90
2023-03-08T13:34:37.388Z,2.90
2023-03-08T13:37:05.570Z,2.90
2023-03-08T13:39:33.544Z,2.90
2023-03-08T13:42:11.943Z,3.00
2023-03-08T13:44:41.448Z,3.10
2023-03-08T13:47:18.839Z,3.20
2023-03-08T13:49:47.153Z,3.30
2023-03-08T13:52:18.112Z,3.20
2023-03-08T13:54:47.784Z,3.10
2023-03-08T13:57:21.516Z,3.10
2023-03-08T13:59:52.515Z,2.90
2023-03-08T14:02:23.141Z,2.90
2023-03-08T14:04:51.599Z,2.90
2023-03-08T14:07:22.114Z,2.90
2023-03-08T14:09:50.874Z,2.90
2023-03-08T14:12:21.012Z,2.90
2023-03-08T14:14:51.712Z,2.70
2023-03-08T14:17:24.148Z,2.80
2023-03-08T14:19:56.905Z,2.80
2023-03-08T14:22:38.597Z,2.70
2023-03-08T14:25:21.991Z,2.60
2023-03-08T14:27:50.932Z,2.60
2023-03-08T14:30:21.833Z,2.70
2023-03-08T14:33:10.912Z,2.80
2023-03-08T14:35:43.114Z,2.70
2023-03-08T14:38:15.234Z,3.00
2023-03-08T14:40:49.041Z,2.90
2023-03-08T14:43:20.352Z,3.00
2023-03-08T14:45:54.299Z,3.10
2023-03-08T14:48:25.820Z,3.10
2023-03-08T14:50:58.761Z,3.00
2023-03-08T14:53:30.748Z,2.90
2023-03-08T14:56:00.044Z,2.80
2023-03-08T14:58:30.287Z,2.80
2023-03-08T15:01:01.318Z,2.70
2023-03-08T15:03:30.103Z,2.70
2023-03-08T15:06:00.829Z,2.70
2023-03-08T15:08:29.653Z,2.70
2023-03-08T15:10:58.759Z,2.60
2023-03-08T15:13:27.261Z,2.80
2023-03-08T15:15:56.259Z,2.70
2023-03-08T15:18:25.307Z,2.60
2023-03-08T15:20:54.434Z,2.60
2023-03-08T15:23:25.638Z,2.60
2023-03-08T15:25:54.436Z,2.60
2023-03-08T15:28:24.411Z,2.60
2023-03-08T15:30:55.064Z,2.60
2023-03-08T15:33:23.864Z,2.60
2023-03-08T15:35:55.719Z,2.60
2023-03-08T15:38:26.288Z,2.60
2023-03-08T15:40:54.909Z,2.60
2023-03-08T15:43:23.563Z,2.70
2023-03-08T15:45:52.663Z,2.70
2023-03-08T15:48:21.462Z,2.60
2023-03-08T15:50:50.263Z,2.70
2023-03-08T15:53:34.332Z,2.80
2023-03-08T15:56:05.623Z,2.80
2023-03-08T15:58:33.962Z,2.80
2023-03-08T16:01:02.093Z,2.90
2023-03-08T16:03:31.434Z,3.00
2023-03-08T16:06:00.687Z,3.00
2023-03-08T16:08:30.140Z,2.90
2023-03-08T16:11:04.156Z,2.80
2023-03-08T16:13:34.931Z,2.90
2023-03-08T16:16:04.499Z,2.90
2023-03-08T16:18:33.948Z,2.90
2023-03-08T16:21:02.218Z,2.80
2023-03-08T16:23:30.909Z,2.80
2023-03-08T16:26:13.493Z,2.80
2023-03-08T16:28:45.282Z,2.60
2023-03-08T16:31:13.853Z,2.80
2023-03-08T16:33:42.508Z,2.70
2023-03-08T16:36:12.578Z,2.60
2023-03-08T16:38:41.795Z,2.60
2023-03-08T16:41:14.328Z,2.60
2023-03-08T16:43:47.794Z,2.80
2023-03-08T16:46:33.801Z,2.80
2023-03-08T16:49:03.549Z,2.80
2023-03-08T16:51:32.907Z,2.70
2023-03-08T16:54:01.646Z,2.60
2023-03-08T16:56:31.388Z,2.60
2023-03-08T16:59:02.597Z,2.60
2023-03-08T17:01:31.787Z,2.60
2023-03-08T17:04:01.465Z,2.50
2023-03-08T17:06:31.388Z,2.50
2023-03-08T17:09:00.370Z,2.60
2023-03-08T17:11:30.267Z,2.40
2023-03-08T17:14:00.509Z,2.40
2023-03-08T17:16:31.878Z,2.60
2023-03-08T17:19:01.147Z,2.50
2023-03-08T17:21:31.704Z,2.50
2023-03-08T17:24:00.845Z,2.50
2023-03-08T17:26:29.303Z,2.50
2023-03-08T17:28:57.995Z,2.50
2023-03-08T17:31:27.266Z,2.50
2023-03-08T17:33:58.002Z,2.50
2023-03-08T17:36:27.058Z,2.60
2023-03-08T17:38:55.707Z,2.60
2023-03-08T17:41:25.161Z,2.50
2023-03-08T17:43:53.959Z,2.50
2023-03-08T17:46:23.664Z,2.40
2023-03-08T17:48:53.639Z,2.50
2023-03-08T17:51:24.686Z,2.60
2023-03-08T17:53:53.678Z,2.50
2023-03-08T17:56:23.409Z,2.40
2023-03-08T17:58:52.360Z,2.40
2023-03-08T18:01:21.818Z,2.40
2023-03-08T18:03:50.446Z,2.40
2023-03-08T18:06:21.465Z,2.40
2023-03-08T18:08:51.716Z,2.40
2023-03-08T18:11:20.564Z,2.40
2023-03-08T18:13:49.159Z,2.40
2023-03-08T18:16:18.007Z,2.40
2023-03-08T18:18:50.000Z,2.40
2023-03-08T18:21:19.226Z,2.40
2023-03-08T18:23:48.525Z,2.40
2023-03-08T18:26:19.594Z,2.40
2023-03-08T18:28:48.347Z,2.30
2023-03-08T18:31:18.128Z,2.30
2023-03-08T18:33:46.751Z,2.30
2023-03-08T18:36:15.392Z,2.30
2023-03-08T18:38:44.196Z,2.20
2023-03-08T18:41:13.809Z,2.20
2023-03-08T18:43:44.188Z,2.20
2023-03-08T18:46:14.230Z,2.20
2023-03-08T18:48:43.073Z,2.20
2023-03-08T18:51:11.881Z,2.20
2023-03-08T18:53:40.832Z,2.20
2023-03-08T18:56:09.459Z,2.30
2023-03-08T18:58:37.966Z,2.20
2023-03-08T19:01:15.510Z,2.20
2023-03-08T19:03:44.992Z,2.20
2023-03-08T19:06:19.472Z,2.20
2023-03-08T19:08:47.857Z,2.10
2023-03-08T19:11:17.610Z,2.10
2023-03-08T19:13:46.764Z,2.10
2023-03-08T19:16:23.421Z,2.10
2023-03-08T19:18:53.969Z,2.10
2023-03-08T19:21:23.692Z,2.10
2023-03-08T19:23:52.479Z,2.10
2023-03-08T19:26:41.605Z,2.20
2023-03-08T19:29:14.134Z,2.20
2023-03-08T19:31:46.003Z,1.90
2023-03-08T19:34:14.736Z,2.20
2023-03-08T19:36:52.373Z,2.10
2023-03-08T19:39:23.410Z,2.00
2023-03-08T19:41:52.820Z,2.00
2023-03-08T19:44:21.772Z,2.00
2023-03-08T19:46:52.057Z,2.00
2023-03-08T19:49:22.750Z,1.80
2023-03-08T19:51:51.366Z,2.00
2023-03-08T19:54:20.172Z,2.00
2023-03-08T19:56:48.529Z,2.00
2023-03-08T19:59:17.142Z,2.10
2023-03-08T20:01:46.743Z,2.10
2023-03-08T20:04:16.804Z,2.10
2023-03-08T20:06:47.528Z,2.20
2023-03-08T20:09:18.571Z,2.10
2023-03-08T20:11:51.057Z,2.00
2023-03-08T20:14:19.560Z,2.10
2023-03-08T20:16:48.346Z,2.10
2023-03-08T20:19:18.674Z,2.10
2023-03-08T20:21:47.389Z,2.20
2023-03-08T20:24:18.416Z,2.30
2023-03-08T20:26:47.377Z,2.30
2023-03-08T20:29:16.174Z,2.20
2023-03-08T20:31:45.453Z,2.30
2023-03-08T20:34:14.408Z,2.40
2023-03-08T20:36:44.487Z,2.30
2023-03-08T20:39:13.616Z,2.20
2023-03-08T20:41:42.725Z,2.20
2023-03-08T20:44:13.766Z,1.90
2023-03-08T20:46:52.165Z,2.20
2023-03-08T20:49:21.913Z,2.20
2023-03-08T20:51:52.170Z,2.20
2023-03-08T20:54:21.132Z,2.20
2023-03-08T20:56:51.011Z,2.10
2023-03-08T20:59:23.686Z,2.10
2023-03-08T21:01:54.251Z,2.20
2023-03-08T21:04:23.212Z,2.10
2023-03-08T21:06:53.471Z,2.20
2023-03-08T21:09:22.613Z,2.10
2023-03-08T21:11:52.009Z,2.10
2023-03-08T21:14:20.500Z,2.10
2023-03-08T21:16:48.817Z,2.10
2023-03-08T21:19:17.480Z,2.10
2023-03-08T21:21:49.387Z,2.00
2023-03-08T21:24:20.088Z,2.00
2023-03-08T21:26:48.584Z,2.00
2023-03-08T21:29:23.775Z,1.90
2023-03-08T21:31:53.766Z,1.80
2023-03-08T21:34:22.095Z,1.90
2023-03-08T21:36:51.067Z,2.00
2023-03-08T21:39:21.283Z,2.00
2023-03-08T21:41:51.043Z,2.00
2023-03-08T21:44:21.132Z,1.90
2023-03-08T21:46:50.026Z,1.90
2023-03-08T21:49:20.805Z,2.00
2023-03-08T21:51:50.420Z,2.00
2023-03-08T21:54:21.551Z,1.90
2023-03-08T21:56:50.574Z,2.00
2023-03-08T21:59:19.595Z,1.90
2023-03-08T22:01:51.404Z,1.90
2023-03-08T22:04:20.501Z,1.90
2023-03-08T22:06:49.758Z,1.90
2023-03-08T22:09:18.514Z,2.00
2023-03-08T22:11:48.642Z,1.90
2023-03-08T22:14:17.128Z,1.90
2023-03-08T22:16:45.602Z,1.90
2023-03-08T22:19:14.266Z,2.00
2023-03-08T22:21:42.570Z,2.00
2023-03-08T22:24:11.996Z,1.90
2023-03-08T22:26:41.133Z,1.90
2023-03-08T22:29:11.069Z,1.90
2023-03-08T22:31:40.212Z,2.10
2023-03-08T22:34:09.139Z,2.00
2023-03-08T22:36:37.444Z,2.00
2023-03-08T22:39:06.085Z,2.00
2023-03-08T22:41:37.604Z,1.90
2023-03-08T22:44:06.811Z,1.80
2023-03-08T22:46:37.364Z,1.80
2023-03-08T22:49:07.845Z,1.80
2023-03-08T22:51:36.811Z,1.80
2023-03-08T22:54:06.259Z,1.80
2023-03-08T22:56:35.367Z,1.80
2023-03-08T22:59:04.753Z,1.70
2023-03-08T23:01:33.998Z,1.70
2023-03-08T23:04:04.902Z,1.70
2023-03-08T23:06:33.792Z,1.70
2023-03-08T23:09:03.063Z,1.70
2023-03-08T23:11:31.679Z,1.70
2023-03-08T23:14:00.670Z,1.70
2023-03-08T23:16:29.119Z,1.70
2023-03-08T23:18:57.457Z,1.60
2023-03-08T23:21:29.818Z,1.60
2023-03-08T23:23:58.683Z,1.60
2023-03-08T23:26:28.749Z,1.60
2023-03-08T23:28:58.727Z,1.60
2023-03-08T23:31:28.853Z,1.60
2023-03-08T23:33:58.252Z,1.70
2023-03-08T23:36:29.449Z,1.70
2023-03-08T23:38:58.557Z,1.70
2023-03-08T23:41:27.373Z,1.70
2023-03-08T23:43:56.660Z,1.60
2023-03-08T23:46:25.412Z,1.70
2023-03-08T23:48:57.640Z,1.70
2023-03-08T23:51:28.672Z,1.70
2023-03-08T23:53:58.114Z,1.70
2023-03-08T23:56:27.850Z,1.70
2023-03-08T23:58:56.811Z,1.70
